aviador You're here:

KSBP Decoded Metar

SAN LUIS OBISPO in CA, USA
Report Time2017-10-23 23:56:00
UTC Time2017-10-24 00:23:44
Flight Rules vfr VFR
Wind350° at 07 kt
W.Decomp.*RWY 29: 4.9 kt HW 4.9 kt RCW
RWY 25: 0.6 kt HW 7.0 kt RCW
W.Rank350° ranks 13
Current wind is above 350° avg. (6.8)
Visibility9999 m
Phenomena:N/A
Clouds:N/A
Expected CloudBase > 8,400 ft AGL from Temp-Dew spread
CeilingNone
Temp36°C (ISA +21)
Dew Point15°C (28% RH)
Heat Index35.7°C
AAT34.9°C
QNH1017 hPa
Density Alt2,710 ft
Elevation194 ft
Report Wrong Elevation
Raw Report
KSBP 232356Z 35007KT 10SM CLR 36/15 A3004 RMK AO2 SLP166 T03610150
10400 20317 55004=

Extra information for KSBP:More info

Metar Taf Metar & Taf Last 4 Metars F.Rules Stats Wind Profile Meteogram Temp Stats Airport Information Weather charts Add Link Nearby VenuesMetar ALERT Operation Metar Decoded Social comments

AIRNAV info for KSBP